Time;durP1;ratioP1;P1;durP2;ratioP2;P2;SDS_P1;SDS_P2;PMS_P1;PMS_P2;Temp;Humidity;BMP_temperature;BMP_pressure;BME280_temperature;BME280_humidity;BME280_pressure;Samples;Min_cycle;Max_cycle;Signal;HPM_P1;HPM_P2
2022/02/28 00:00:13;;;;;;;45.12;22.75;;;;;;;0.74;73.75;103569.56;1740658;82;21181;-85
2022/02/28 00:02:41;;;;;;;49.20;21.52;;;;;;;0.78;73.75;103574.33;1735841;81;21106;-86
2022/02/28 00:05:08;;;;;;;49.35;21.93;;;;;;;0.80;73.68;103565.81;1740811;82;21760;-86
2022/02/28 00:07:35;;;;;;;48.10;23.55;;;;;;;0.84;73.70;103562.41;1740552;82;21081;-86
2022/02/28 00:10:02;;;;;;;48.13;22.20;;;;;;;0.86;73.64;103565.18;1740435;81;21046;-87
2022/02/28 00:12:29;;;;;;;47.93;24.27;;;;;;;0.87;73.66;103563.14;1741029;82;21070;-86
2022/02/28 00:14:56;;;;;;;53.83;22.65;;;;;;;0.91;73.62;103570.11;1741256;82;21046;-86
2022/02/28 00:17:22;;;;;;;46.05;23.50;;;;;;;0.94;73.52;103563.06;1741176;82;21773;-87
2022/02/28 00:19:49;;;;;;;42.38;22.62;;;;;;;0.96;73.52;103561.56;1741086;81;21039;-85
2022/02/28 00:22:15;;;;;;;44.30;21.62;;;;;;;0.96;73.44;103556.38;1741281;82;21034;-86
2022/02/28 00:24:42;;;;;;;46.13;22.67;;;;;;;0.97;73.40;103559.11;1741381;82;21144;-86
2022/02/28 00:27:09;;;;;;;42.73;21.77;;;;;;;0.99;73.36;103559.28;1741490;82;21067;-86
2022/02/28 00:29:35;;;;;;;48.02;20.77;;;;;;;0.99;73.29;103564.47;1741577;82;21698;-87
2022/02/28 00:32:02;;;;;;;40.98;20.72;;;;;;;0.93;73.29;103546.95;1741570;82;21050;-87
2022/02/28 00:34:29;;;;;;;42.65;20.00;;;;;;;0.99;73.33;103555.39;1741419;82;21034;-86
2022/02/28 00:36:56;;;;;;;41.73;19.62;;;;;;;1.02;73.32;103552.23;1741619;82;21628;-86
2022/02/28 00:39:22;;;;;;;37.10;19.17;;;;;;;1.00;73.32;103549.84;1741645;82;21050;-87
2022/02/28 00:41:49;;;;;;;35.88;17.05;;;;;;;0.96;73.31;103550.80;1741426;82;21719;-87
2022/02/28 00:44:19;;;;;;;40.03;18.75;;;;;;;0.94;73.34;103554.91;1741387;82;21077;-86
2022/02/28 00:46:45;;;;;;;35.30;18.07;;;;;;;0.91;73.33;103547.16;1741462;82;21101;-87
2022/02/28 00:49:12;;;;;;;40.00;19.37;;;;;;;0.91;73.42;103536.41;1741394;82;21545;-87
2022/02/28 00:51:38;;;;;;;41.73;18.65;;;;;;;0.93;73.45;103534.89;1741558;81;21034;-87
2022/02/28 00:54:05;;;;;;;32.95;18.77;;;;;;;0.96;73.47;103540.42;1737767;82;21765;-87
2022/02/28 00:56:32;;;;;;;39.40;19.48;;;;;;;0.95;73.42;103537.27;1736651;82;21611;-88
2022/02/28 00:58:59;;;;;;;38.78;18.55;;;;;;;0.94;73.45;103540.64;1736361;82;21038;-88
2022/02/28 01:01:25;;;;;;;40.00;18.92;;;;;;;0.94;73.55;103536.75;1736621;82;21121;-90
2022/02/28 01:03:52;;;;;;;43.78;20.15;;;;;;;0.96;73.53;103539.13;1736536;82;21590;-87
2022/02/28 01:06:18;;;;;;;43.00;20.43;;;;;;;1.00;73.60;103542.06;1736414;82;21763;-86
2022/02/28 01:08:47;;;;;;;44.73;21.68;;;;;;;1.04;73.60;103540.34;1736399;82;21065;-88
2022/02/28 01:11:14;;;;;;;54.55;23.35;;;;;;;1.05;73.48;103535.33;1736577;82;21050;-87
2022/02/28 01:13:41;;;;;;;51.85;23.22;;;;;;;1.07;73.45;103538.06;1736695;82;21141;-87
2022/02/28 01:16:07;;;;;;;46.45;23.92;;;;;;;1.05;73.37;103536.62;1736635;82;21024;-89
2022/02/28 01:18:34;;;;;;;47.35;21.97;;;;;;;1.06;73.42;103537.53;1736516;82;22596;-87
2022/02/28 01:21:01;;;;;;;51.83;23.18;;;;;;;1.04;73.38;103536.06;1736610;82;21234;-86
2022/02/28 01:23:27;;;;;;;50.05;22.65;;;;;;;1.07;73.55;103536.77;1736385;82;21046;-85
2022/02/28 01:25:54;;;;;;;45.40;23.27;;;;;;;1.11;73.55;103533.77;1736455;82;21635;-85
2022/02/28 01:28:21;;;;;;;44.48;22.62;;;;;;;1.14;73.52;103538.88;1736633;82;21058;-85
2022/02/28 01:30:47;;;;;;;44.95;22.27;;;;;;;1.15;73.54;103530.75;1736665;82;23005;-86
2022/02/28 01:33:14;;;;;;;45.88;21.73;;;;;;;1.16;73.52;103525.73;1736378;82;21118;-86
2022/02/28 01:35:41;;;;;;;43.15;22.00;;;;;;;1.08;73.46;103510.08;1736623;82;20972;-87
2022/02/28 01:38:07;;;;;;;42.88;20.88;;;;;;;1.19;73.47;103519.94;1736569;82;21003;-87
2022/02/28 01:40:34;;;;;;;46.20;21.23;;;;;;;1.19;73.44;103519.94;1736791;82;21042;-88
2022/02/28 01:43:01;;;;;;;47.60;21.40;;;;;;;1.21;73.42;103516.22;1736661;82;21834;-88
2022/02/28 01:45:27;;;;;;;44.90;21.27;;;;;;;1.22;73.45;103517.69;1736761;82;21038;-88
2022/02/28 01:47:55;;;;;;;42.65;19.85;;;;;;;1.26;73.48;103516.31;1736670;82;21066;-88
2022/02/28 01:50:22;;;;;;;36.93;18.98;;;;;;;1.25;73.37;103516.70;1736834;82;21536;-88
2022/02/28 01:52:49;;;;;;;37.28;18.85;;;;;;;1.24;73.41;103512.28;1736893;82;21593;-88
2022/02/28 01:55:17;;;;;;;40.52;18.30;;;;;;;1.24;73.41;103504.84;1741523;82;21860;-88
2022/02/28 01:57:44;;;;;;;37.60;19.10;;;;;;;1.21;73.32;103505.45;1741542;82;21623;-88
2022/02/28 02:00:14;;;;;;;37.15;20.00;;;;;;;1.18;73.40;103503.81;1720176;82;35434;-88
2022/02/28 02:02:42;;;;;;;36.60;18.10;;;;;;;1.21;73.45;103504.16;1741222;82;21035;-88
2022/02/28 02:05:08;;;;;;;35.58;19.00;;;;;;;1.23;73.48;103514.31;1741592;82;21070;-88
2022/02/28 02:07:35;;;;;;;38.45;18.40;;;;;;;1.23;73.44;103501.73;1741464;82;22507;-89
2022/02/28 02:10:04;;;;;;;36.40;18.30;;;;;;;1.23;73.47;103511.72;1741480;82;21054;-88
2022/02/28 02:12:31;;;;;;;35.85;19.25;;;;;;;1.23;73.39;103510.42;1741492;82;21081;-88
2022/02/28 02:14:57;;;;;;;34.80;18.75;;;;;;;1.19;73.33;103506.97;1741713;82;21054;-88
2022/02/28 02:17:24;;;;;;;40.25;19.27;;;;;;;1.14;73.33;103507.75;1741589;82;21037;-88
2022/02/28 02:19:53;;;;;;;41.30;19.67;;;;;;;1.12;73.37;103510.95;1741620;82;21809;-88
2022/02/28 02:22:21;;;;;;;42.85;20.27;;;;;;;1.08;73.37;103513.97;1741422;82;21481;-89
2022/02/28 02:24:49;;;;;;;48.17;21.57;;;;;;;1.03;73.32;103510.86;1706564;82;21045;-88
2022/02/28 02:27:16;;;;;;;41.15;20.90;;;;;;;0.97;73.28;103519.29;1741497;82;21233;-88
2022/02/28 02:29:42;;;;;;;44.42;21.37;;;;;;;0.86;73.28;103507.75;1741511;82;21615;-88
2022/02/28 02:32:16;;;;;;;44.33;21.50;;;;;;;0.80;73.35;103508.77;1741414;82;21749;-88
2022/02/28 02:34:43;;;;;;;42.95;21.30;;;;;;;0.70;73.37;103506.47;1740272;82;21512;-88
2022/02/28 02:37:10;;;;;;;49.18;22.37;;;;;;;0.61;73.50;103500.28;1741250;82;21186;-88
2022/02/28 02:39:41;;;;;;;42.90;21.20;;;;;;;0.56;73.64;103497.20;1741281;82;21114;-88
2022/02/28 02:42:08;;;;;;;45.20;20.62;;;;;;;0.50;73.74;103495.20;1741024;82;21587;-88
2022/02/28 02:44:35;;;;;;;42.55;19.73;;;;;;;0.45;73.81;103490.27;1741133;82;22599;-86
2022/02/28 02:47:01;;;;;;;46.30;20.55;;;;;;;0.40;73.89;103494.05;1741144;82;21054;-88
2022/02/28 02:49:29;;;;;;;37.42;19.32;;;;;;;0.34;73.99;103496.89;1741293;82;21148;-88
2022/02/28 02:51:56;;;;;;;42.98;20.45;;;;;;;0.27;74.02;103497.87;1741231;82;21078;-86
2022/02/28 02:54:22;;;;;;;48.30;21.05;;;;;;;0.22;74.13;103490.34;1750513;81;21518;-87
2022/02/28 02:56:49;;;;;;;43.63;20.17;;;;;;;0.18;74.28;103498.14;1757645;81;21800;-86
2022/02/28 02:59:16;;;;;;;43.28;20.68;;;;;;;0.14;74.32;103491.70;1757560;81;21543;-87
2022/02/28 03:01:42;;;;;;;42.08;20.72;;;;;;;0.11;74.41;103490.44;1757614;81;21065;-85
2022/02/28 03:04:09;;;;;;;45.75;20.37;;;;;;;0.07;74.49;103488.26;1757646;81;21116;-86
2022/02/28 03:06:35;;;;;;;45.17;21.33;;;;;;;0.02;74.54;103482.93;1757592;81;21077;-86
2022/02/28 03:09:02;;;;;;;43.80;21.73;;;;;;;-0.03;74.62;103487.61;1757547;81;21749;-86
2022/02/28 03:11:28;;;;;;;44.70;20.95;;;;;;;-0.07;74.64;103487.64;1757657;81;21655;-86
2022/02/28 03:13:55;;;;;;;44.23;20.17;;;;;;;-0.11;74.70;103497.47;1757662;81;21021;-87
2022/02/28 03:16:22;;;;;;;49.08;21.10;;;;;;;-0.16;74.72;103489.20;1758063;81;21060;-86
2022/02/28 03:18:48;;;;;;;40.90;21.23;;;;;;;-0.22;74.76;103485.55;1758070;81;21026;-88
2022/02/28 03:21:15;;;;;;;38.90;20.20;;;;;;;-0.25;74.82;103482.98;1757894;81;21760;-87
2022/02/28 03:23:42;;;;;;;44.55;21.40;;;;;;;-0.29;74.90;103486.89;1757738;81;21080;-87
2022/02/28 03:26:08;;;;;;;41.77;20.97;;;;;;;-0.33;74.96;103480.83;1757658;81;21555;-87
2022/02/28 03:28:40;;;;;;;36.63;21.48;;;;;;;-0.37;75.04;103481.23;1756782;81;21099;-88
2022/02/28 03:31:07;;;;;;;44.58;20.48;;;;;;;-0.38;75.11;103483.27;1728365;81;21002;-88
2022/02/28 03:33:33;;;;;;;43.13;21.95;;;;;;;-0.41;75.17;103479.05;1757516;81;21757;-87
2022/02/28 03:36:00;;;;;;;45.98;20.40;;;;;;;-0.42;75.28;103478.50;1757704;81;21112;-88
2022/02/28 03:38:27;;;;;;;41.50;20.65;;;;;;;-0.42;75.38;103483.67;1757603;81;21526;-87
2022/02/28 03:40:53;;;;;;;45.85;20.77;;;;;;;-0.43;75.42;103479.27;1757751;81;21157;-88
2022/02/28 03:43:20;;;;;;;47.08;20.68;;;;;;;-0.41;75.47;103480.35;1757742;81;22364;-87
2022/02/28 03:45:49;;;;;;;47.17;21.52;;;;;;;-0.43;75.47;103480.17;1757706;81;21752;-88
2022/02/28 03:48:17;;;;;;;39.55;20.68;;;;;;;-0.43;75.50;103484.05;1705351;81;21166;-87
2022/02/28 03:50:44;;;;;;;42.93;21.73;;;;;;;-0.47;75.48;103480.92;1757274;81;21073;-88
2022/02/28 03:53:12;;;;;;;45.30;22.65;;;;;;;-0.50;75.55;103482.80;1757314;81;21586;-87
2022/02/28 03:55:39;;;;;;;48.83;23.10;;;;;;;-0.52;75.63;103484.69;1749134;81;21575;-87
2022/02/28 03:58:06;;;;;;;52.08;23.85;;;;;;;-0.55;75.71;103480.06;1749286;82;22791;-87
2022/02/28 04:00:32;;;;;;;56.50;25.15;;;;;;;-0.56;75.78;103478.59;1749164;82;21073;-88
2022/02/28 04:02:59;;;;;;;48.33;23.92;;;;;;;-0.56;75.82;103476.95;1749473;82;21089;-87
2022/02/28 04:05:26;;;;;;;50.25;23.95;;;;;;;-0.57;75.90;103472.50;1749715;82;21610;-87
2022/02/28 04:07:52;;;;;;;48.90;23.73;;;;;;;-0.58;75.89;103462.92;1749756;82;21093;-88
2022/02/28 04:10:19;;;;;;;45.52;24.02;;;;;;;-0.58;75.92;103466.80;1750055;82;22514;-88
2022/02/28 04:12:45;;;;;;;54.27;23.62;;;;;;;-0.60;75.94;103471.80;1749934;82;21638;-87
2022/02/28 04:15:12;;;;;;;40.80;21.80;;;;;;;-0.63;75.95;103468.84;1749925;82;21245;-87
2022/02/28 04:17:39;;;;;;;46.08;21.68;;;;;;;-0.65;75.99;103469.05;1749871;82;21124;-87
2022/02/28 04:20:06;;;;;;;47.58;23.30;;;;;;;-0.68;75.97;103474.23;1749565;82;21046;-87
2022/02/28 04:22:33;;;;;;;49.10;23.55;;;;;;;-0.71;75.96;103477.76;1748994;82;21754;-85
2022/02/28 04:24:59;;;;;;;47.73;23.52;;;;;;;-0.72;76.00;103475.94;1748922;82;21072;-87
2022/02/28 04:27:26;;;;;;;46.15;23.98;;;;;;;-0.75;76.06;103476.52;1749265;82;21062;-87
2022/02/28 04:29:53;;;;;;;47.30;22.15;;;;;;;-0.76;76.05;103478.92;1749301;82;21540;-87
2022/02/28 04:32:20;;;;;;;48.25;25.23;;;;;;;-0.80;76.00;103478.94;1749529;82;21078;-87
2022/02/28 04:34:47;;;;;;;51.65;23.90;;;;;;;-0.83;76.04;103482.45;1749176;82;22448;-87
2022/02/28 04:37:13;;;;;;;57.55;23.57;;;;;;;-0.85;76.13;103482.66;1749331;82;21524;-88
2022/02/28 04:39:40;;;;;;;44.38;22.95;;;;;;;-0.88;76.20;103490.05;1749618;82;21238;-88
2022/02/28 04:42:07;;;;;;;53.50;24.07;;;;;;;-0.91;76.29;103489.72;1749397;82;21066;-87
2022/02/28 04:44:34;;;;;;;47.75;24.72;;;;;;;-0.93;76.39;103490.83;1749617;82;21046;-89
2022/02/28 04:47:02;;;;;;;45.98;23.55;;;;;;;-0.94;76.44;103488.97;1749967;80;21766;-88
2022/02/28 04:49:28;;;;;;;49.90;24.40;;;;;;;-0.94;76.45;103489.35;1749503;82;21093;-87
2022/02/28 04:51:55;;;;;;;46.45;24.45;;;;;;;-0.95;76.46;103491.41;1749801;80;21045;-86
2022/02/28 04:54:21;;;;;;;45.95;23.85;;;;;;;-0.96;76.52;103490.46;1749299;82;21078;-85
2022/02/28 04:56:48;;;;;;;50.15;22.73;;;;;;;-0.95;76.54;103492.70;1749483;82;21068;-87
2022/02/28 04:59:15;;;;;;;49.90;24.32;;;;;;;-0.95;76.61;103490.11;1746034;80;21873;-88
2022/02/28 05:01:41;;;;;;;47.10;23.02;;;;;;;-0.97;76.65;103498.98;1770199;81;21623;-87
2022/02/28 05:04:08;;;;;;;45.60;23.38;;;;;;;-0.96;76.73;103503.39;1770439;81;21639;-87
2022/02/28 05:06:35;;;;;;;46.98;23.70;;;;;;;-0.94;76.78;103503.57;1770594;80;21030;-86
2022/02/28 05:09:01;;;;;;;44.50;23.40;;;;;;;-0.95;76.81;103502.66;1770609;81;21117;-87
2022/02/28 05:11:28;;;;;;;45.73;23.73;;;;;;;-0.94;76.90;103508.74;1770749;81;21731;-87
2022/02/28 05:13:55;;;;;;;48.00;25.30;;;;;;;-0.92;77.01;103507.25;1770358;81;21049;-87
2022/02/28 05:16:21;;;;;;;62.30;30.15;;;;;;;-0.86;77.15;103512.78;1770412;80;21058;-85
2022/02/28 05:18:48;;;;;;;64.92;35.33;;;;;;;-0.80;77.18;103508.69;1770239;81;21199;-86
2022/02/28 05:21:16;;;;;;;73.10;40.75;;;;;;;-0.73;77.22;103512.53;1770707;81;20999;-91
2022/02/28 05:23:43;;;;;;;77.08;36.17;;;;;;;-0.74;77.14;103502.91;1769978;80;22749;-83
2022/02/28 05:26:09;;;;;;;54.88;29.27;;;;;;;-0.63;77.15;103510.62;1769953;81;21580;-80
2022/02/28 05:28:36;;;;;;;57.00;26.97;;;;;;;-0.61;77.03;103518.17;1770545;81;21623;-87
2022/02/28 05:31:05;;;;;;;45.30;24.80;;;;;;;-0.57;77.07;103518.16;1770663;81;21062;-89
2022/02/28 05:33:32;;;;;;;45.55;24.45;;;;;;;-0.54;77.05;103522.41;1770959;81;21117;-88
2022/02/28 05:35:59;;;;;;;51.50;25.50;;;;;;;-0.52;77.00;103518.32;1771227;81;21738;-88
2022/02/28 05:38:25;;;;;;;43.05;24.90;;;;;;;-0.49;76.98;103523.82;1770902;81;21182;-82
2022/02/28 05:40:53;;;;;;;48.50;25.08;;;;;;;-0.49;76.97;103526.06;1770561;80;21521;-89
2022/02/28 05:43:20;;;;;;;46.25;26.05;;;;;;;-0.48;76.98;103519.21;1770441;81;21658;-88
2022/02/28 05:45:47;;;;;;;50.70;26.45;;;;;;;-0.43;77.05;103527.14;1770496;81;21074;-86
2022/02/28 05:48:13;;;;;;;59.77;31.27;;;;;;;-0.38;77.11;103518.20;1770485;81;21794;-84
2022/02/28 05:50:40;;;;;;;58.02;30.68;;;;;;;-0.33;77.08;103522.63;1770565;81;20995;-85
2022/02/28 05:53:07;;;;;;;53.75;29.87;;;;;;;-0.30;77.13;103514.84;1770640;81;21054;-90
2022/02/28 05:55:36;;;;;;;57.50;31.27;;;;;;;-0.20;77.15;103516.79;1770250;80;21098;-84
2022/02/28 05:58:03;;;;;;;55.75;30.23;;;;;;;-0.10;77.16;103520.94;1770946;81;21548;-83
2022/02/28 06:00:29;;;;;;;52.88;28.75;;;;;;;-0.02;77.12;103520.16;1771155;81;22845;-86
2022/02/28 06:02:56;;;;;;;55.83;29.52;;;;;;;0.08;77.18;103518.22;1771168;81;21533;-86
2022/02/28 06:05:23;;;;;;;54.03;30.25;;;;;;;0.18;77.13;103518.86;1771333;81;21014;-85
2022/02/28 06:07:50;;;;;;;62.93;29.50;;;;;;;0.28;77.12;103523.04;1771013;81;21579;-87
2022/02/28 06:10:17;;;;;;;57.13;29.77;;;;;;;0.41;77.03;103526.58;1771175;81;21078;-90
2022/02/28 06:12:44;;;;;;;54.63;27.25;;;;;;;0.49;76.88;103530.02;1770600;81;21808;-94
2022/02/28 06:15:10;;;;;;;53.20;28.95;;;;;;;0.55;76.77;103525.53;1771232;81;21101;-94
2022/02/28 06:17:40;;;;;;;53.15;29.12;;;;;;;0.63;76.74;103526.38;1770775;81;21401;-94
2022/02/28 06:20:10;;;;;;;53.95;29.50;;;;;;;0.74;76.69;103528.47;1771051;81;21115;-95
2022/02/28 06:22:37;;;;;;;63.10;31.75;;;;;;;0.82;76.61;103531.89;1736762;81;21030;-87
2022/02/28 06:25:05;;;;;;;58.87;31.62;;;;;;;0.89;76.50;103535.32;1732039;82;22429;-86
2022/02/28 06:27:31;;;;;;;57.33;29.48;;;;;;;0.97;76.48;103539.66;1731787;82;21580;-86
2022/02/28 06:29:58;;;;;;;61.98;32.95;;;;;;;1.05;76.33;103539.57;1731951;82;21093;-86
2022/02/28 06:32:25;;;;;;;55.75;31.00;;;;;;;1.11;76.33;103541.17;1731643;82;21019;-86
2022/02/28 06:34:52;;;;;;;68.25;33.25;;;;;;;1.19;76.17;103541.99;1731785;82;21026;-86
2022/02/28 06:37:18;;;;;;;61.68;33.35;;;;;;;1.29;76.18;103542.59;1731466;82;21763;-86
2022/02/28 06:39:45;;;;;;;59.93;32.85;;;;;;;1.42;76.18;103543.53;1731387;82;21010;-86
2022/02/28 06:42:12;;;;;;;58.58;32.60;;;;;;;1.53;76.00;103546.52;1731514;82;21038;-85
2022/02/28 06:44:38;;;;;;;56.73;31.23;;;;;;;1.60;75.84;103553.68;1731497;82;21058;-83
2022/02/28 06:47:05;;;;;;;57.75;31.77;;;;;;;1.65;75.67;103553.41;1731836;82;21070;-86
2022/02/28 06:49:32;;;;;;;62.23;31.95;;;;;;;1.71;75.70;103554.05;1731467;82;22634;-86
2022/02/28 06:51:58;;;;;;;62.20;31.05;;;;;;;1.84;75.69;103555.33;1731425;82;21106;-86
2022/02/28 06:54:25;;;;;;;56.60;28.77;;;;;;;1.91;75.49;103565.22;1731401;82;21118;-85
2022/02/28 06:56:52;;;;;;;51.42;27.98;;;;;;;1.94;75.34;103562.95;1731472;82;21062;-86
2022/02/28 06:59:18;;;;;;;49.30;28.47;;;;;;;1.98;75.35;103569.39;1731469;82;21227;-87
2022/02/28 07:01:45;;;;;;;49.48;28.65;;;;;;;2.08;75.46;103572.57;1731173;82;21854;-86
2022/02/28 07:04:12;;;;;;;60.80;30.08;;;;;;;2.23;75.40;103579.75;1731294;82;21035;-86
2022/02/28 07:06:39;;;;;;;70.97;41.98;;;;;;;2.30;75.27;103583.14;1731457;82;20996;-87
2022/02/28 07:09:07;;;;;;;52.35;29.72;;;;;;;2.39;75.10;103586.18;1731394;82;21600;-87
2022/02/28 07:11:34;;;;;;;57.15;29.40;;;;;;;2.47;75.00;103587.88;1731486;82;21020;-86
2022/02/28 07:14:02;;;;;;;49.48;28.80;;;;;;;2.53;74.92;103585.91;1731465;82;22587;-86
2022/02/28 07:16:29;;;;;;;45.00;27.20;;;;;;;2.61;74.87;103591.53;1729708;82;21015;-87
2022/02/28 07:18:56;;;;;;;45.03;26.20;;;;;;;2.68;74.69;103594.36;1731417;82;21026;-87
2022/02/28 07:21:22;;;;;;;52.35;28.20;;;;;;;2.80;74.84;103593.42;1731404;82;21091;-87
2022/02/28 07:23:49;;;;;;;57.25;28.87;;;;;;;2.92;74.78;103589.45;1731436;82;21517;-87
2022/02/28 07:26:16;;;;;;;53.13;29.02;;;;;;;3.03;74.74;103595.36;1731649;82;22441;-87
2022/02/28 07:28:42;;;;;;;52.98;29.07;;;;;;;3.18;74.71;103599.89;1731571;82;21062;-87
2022/02/28 07:31:09;;;;;;;58.40;28.80;;;;;;;3.30;74.52;103594.63;1731492;82;21003;-86
2022/02/28 07:33:36;;;;;;;53.35;28.15;;;;;;;3.41;74.34;103596.08;1731368;82;21520;-86
2022/02/28 07:36:06;;;;;;;51.63;27.82;;;;;;;3.54;74.21;103591.70;1731192;82;20979;-87
2022/02/28 07:38:33;;;;;;;45.20;24.87;;;;;;;3.61;74.11;103587.25;1731624;82;21851;-86
2022/02/28 07:40:59;;;;;;;47.75;26.57;;;;;;;3.70;74.07;103588.16;1731852;82;21034;-87
2022/02/28 07:43:26;;;;;;;50.67;24.80;;;;;;;3.80;73.90;103589.06;1731465;82;21032;-87
2022/02/28 07:45:53;;;;;;;37.13;19.75;;;;;;;3.91;73.84;103595.34;1731592;82;21063;-87
2022/02/28 07:48:19;;;;;;;30.62;16.80;;;;;;;3.98;73.71;103590.88;1731510;82;21494;-86
2022/02/28 07:50:46;;;;;;;26.33;15.50;;;;;;;4.07;73.64;103596.03;1731984;82;21689;-87
2022/02/28 07:53:13;;;;;;;20.45;9.68;;;;;;;4.15;73.55;103595.47;1731924;82;21120;-87
2022/02/28 07:55:39;;;;;;;20.12;11.40;;;;;;;4.18;73.30;103590.56;1731672;82;21086;-86
2022/02/28 07:58:06;;;;;;;25.15;12.65;;;;;;;4.22;73.25;103595.30;1731956;82;21174;-86
2022/02/28 08:00:33;;;;;;;28.73;15.43;;;;;;;4.26;73.12;103585.69;1731867;82;21031;-86
2022/02/28 08:03:00;;;;;;;23.52;13.38;;;;;;;4.27;72.96;103590.16;1732433;82;21761;-86
2022/02/28 08:05:26;;;;;;;31.50;16.85;;;;;;;4.23;72.92;103592.84;1731869;82;20999;-86
2022/02/28 08:07:53;;;;;;;40.92;20.60;;;;;;;4.27;72.93;103585.84;1731999;82;21082;-85
2022/02/28 08:10:19;;;;;;;36.40;21.12;;;;;;;4.42;72.96;103590.70;1731967;82;21557;-87
2022/02/28 08:12:46;;;;;;;33.75;19.85;;;;;;;4.55;72.99;103590.19;1732154;82;21007;-86
2022/02/28 08:15:13;;;;;;;35.55;17.62;;;;;;;4.70;72.90;103588.12;1732010;82;21768;-86
2022/02/28 08:17:39;;;;;;;30.45;17.57;;;;;;;4.81;72.78;103590.05;1732194;82;20975;-86
2022/02/28 08:20:08;;;;;;;30.57;16.37;;;;;;;4.97;72.76;103589.37;1732030;82;21489;-86
2022/02/28 08:22:34;;;;;;;29.60;14.75;;;;;;;5.12;72.42;103587.67;1731760;82;21031;-86
2022/02/28 08:25:01;;;;;;;29.92;14.83;;;;;;;5.20;72.17;103587.62;1731757;82;21059;-86
2022/02/28 08:27:27;;;;;;;25.82;13.55;;;;;;;5.24;71.84;103592.34;1731720;82;21777;-87
2022/02/28 08:29:54;;;;;;;26.42;13.53;;;;;;;5.27;71.67;103591.70;1731917;82;21070;-87
2022/02/28 08:32:21;;;;;;;24.87;14.38;;;;;;;5.28;71.45;103587.02;1731977;82;21047;-86
2022/02/28 08:34:47;;;;;;;26.35;14.70;;;;;;;5.26;71.18;103593.39;1731987;82;21055;-86
2022/02/28 08:37:14;;;;;;;28.77;14.83;;;;;;;5.23;71.06;103589.58;1731652;82;21019;-86
2022/02/28 08:39:41;;;;;;;20.62;11.93;;;;;;;5.14;70.76;103587.03;1731935;82;21233;-87
2022/02/28 08:42:07;;;;;;;27.25;13.70;;;;;;;5.03;70.67;103590.34;1731809;82;21038;-87
2022/02/28 08:44:34;;;;;;;23.00;12.10;;;;;;;4.95;70.41;103588.32;1731782;82;21017;-86
2022/02/28 08:47:00;;;;;;;19.48;10.82;;;;;;;4.83;70.31;103588.49;1731751;82;21066;-86
2022/02/28 08:49:27;;;;;;;20.30;11.48;;;;;;;4.71;70.33;103587.33;1731723;82;21058;-87
2022/02/28 08:51:54;;;;;;;23.67;13.08;;;;;;;4.60;70.24;103584.64;1731858;82;21765;-86
2022/02/28 08:54:22;;;;;;;23.30;11.25;;;;;;;4.51;70.12;103583.77;1731710;82;21031;-87
2022/02/28 08:56:49;;;;;;;26.20;11.73;;;;;;;4.42;70.00;103586.40;1735479;82;21038;-87
2022/02/28 08:59:16;;;;;;;22.95;11.15;;;;;;;4.36;70.02;103581.91;1736170;82;21038;-87
2022/02/28 09:01:43;;;;;;;23.05;9.90;;;;;;;4.31;69.85;103580.55;1736561;82;21034;-86
2022/02/28 09:04:09;;;;;;;14.23;8.53;;;;;;;4.27;69.66;103590.16;1736389;82;21754;-87
2022/02/28 09:06:36;;;;;;;12.05;7.65;;;;;;;4.21;69.42;103589.57;1736620;82;21478;-87
2022/02/28 09:09:03;;;;;;;16.82;9.40;;;;;;;4.20;69.29;103598.15;1736553;82;21010;-85
2022/02/28 09:11:29;;;;;;;15.38;9.30;;;;;;;4.20;69.20;103595.54;1736431;82;21043;-86
2022/02/28 09:13:56;;;;;;;16.35;8.15;;;;;;;4.20;69.22;103596.45;1736574;82;21054;-86
2022/02/28 09:16:22;;;;;;;17.15;9.48;;;;;;;4.22;69.21;103591.39;1736557;82;21761;-86
2022/02/28 09:18:49;;;;;;;16.73;9.08;;;;;;;4.23;68.95;103601.06;1736553;82;21068;-85
2022/02/28 09:21:16;;;;;;;12.88;6.62;;;;;;;4.21;68.53;103605.22;1736654;82;21031;-86
2022/02/28 09:23:42;;;;;;;9.50;4.80;;;;;;;4.18;67.99;103601.91;1736630;82;21158;-86
2022/02/28 09:26:09;;;;;;;12.28;6.28;;;;;;;4.14;67.49;103601.48;1673902;85;21605;-87
2022/02/28 09:28:36;;;;;;;14.78;6.80;;;;;;;4.12;67.39;103600.02;1673955;85;21767;-87
2022/02/28 09:31:03;;;;;;;12.43;5.78;;;;;;;4.12;67.31;103597.80;1736589;82;20977;-87
2022/02/28 09:33:29;;;;;;;15.20;6.95;;;;;;;4.11;67.30;103606.02;1736573;82;21023;-87
2022/02/28 09:35:56;;;;;;;22.80;12.18;;;;;;;4.11;67.39;103603.77;1736515;82;21034;-86
2022/02/28 09:38:22;;;;;;;28.98;16.62;;;;;;;4.06;68.12;103607.25;1736548;82;21552;-86
2022/02/28 09:40:50;;;;;;;26.02;13.70;;;;;;;4.00;68.84;103602.36;1736792;82;21759;-87
2022/02/28 09:43:17;;;;;;;26.57;14.15;;;;;;;3.98;69.09;103613.02;1736592;82;21031;-87
2022/02/28 09:45:44;;;;;;;22.22;14.18;;;;;;;3.96;69.43;103608.41;1736717;82;21466;-86
2022/02/28 09:48:11;;;;;;;22.00;13.43;;;;;;;3.96;69.68;103618.47;1736694;82;21019;-87
2022/02/28 09:50:37;;;;;;;24.20;13.32;;;;;;;3.97;69.81;103616.78;1718157;82;21066;-87
2022/02/28 09:53:07;;;;;;;15.40;10.32;;;;;;;3.94;69.58;103617.77;1736507;82;21764;-87
2022/02/28 09:55:33;;;;;;;21.17;11.40;;;;;;;3.85;69.45;103621.72;1735407;82;21089;-87
2022/02/28 09:58:00;;;;;;;22.05;10.48;;;;;;;3.78;69.41;103620.17;1731642;82;21050;-87
2022/02/28 10:00:27;;;;;;;16.77;9.33;;;;;;;3.78;69.37;103624.08;1731208;82;21278;-87
2022/02/28 10:02:56;;;;;;;16.40;8.63;;;;;;;3.81;69.30;103624.40;1731526;82;21066;-86
2022/02/28 10:05:24;;;;;;;10.50;6.22;;;;;;;3.84;68.96;103620.77;1731558;82;21795;-87
2022/02/28 10:07:53;;;;;;;11.80;6.28;;;;;;;3.86;68.64;103628.74;1731824;82;21091;-87
2022/02/28 10:10:20;;;;;;;19.50;9.23;;;;;;;3.86;68.42;103628.74;1731778;82;21029;-87
2022/02/28 10:12:47;;;;;;;14.18;8.23;;;;;;;3.89;68.45;103624.76;1731987;82;21113;-87
2022/02/28 10:15:18;;;;;;;18.30;10.03;;;;;;;3.89;68.33;103623.45;1731820;82;21133;-86
2022/02/28 10:17:51;;;;;;;18.62;10.53;;;;;;;3.88;68.29;103628.11;1730731;82;22464;-86
2022/02/28 10:20:28;;;;;;;17.25;11.50;;;;;;;3.91;68.53;103626.61;1731007;82;29762;-87
2022/02/28 10:23:06;;;;;;;21.75;11.30;;;;;;;3.92;68.48;103632.34;1731654;82;21051;-87
2022/02/28 10:25:39;;;;;;;18.67;10.70;;;;;;;3.93;68.40;103626.37;1731668;82;21270;-86
2022/02/28 10:28:17;;;;;;;16.27;9.75;;;;;;;3.96;68.39;103631.86;1731963;82;21050;-87
2022/02/28 10:31:02;;;;;;;16.87;10.28;;;;;;;4.00;68.11;103632.73;1731747;82;21735;-86
2022/02/28 10:33:37;;;;;;;15.60;9.98;;;;;;;4.04;68.09;103637.47;1731694;82;21035;-87
2022/02/28 10:36:21;;;;;;;17.70;9.40;;;;;;;4.05;67.65;103632.77;1731749;82;21258;-86
2022/02/28 10:38:51;;;;;;;15.88;7.97;;;;;;;4.09;67.52;103633.59;1732292;82;27481;-86
2022/02/28 10:41:22;;;;;;;16.12;8.93;;;;;;;4.08;67.09;103641.81;1731853;82;21520;-86
2022/02/28 10:43:48;;;;;;;14.00;8.70;;;;;;;4.07;67.23;103639.05;1731860;82;21776;-86
2022/02/28 10:46:26;;;;;;;13.83;8.73;;;;;;;4.02;67.15;103639.00;1731943;82;21030;-86
2022/02/28 10:49:00;;;;;;;18.48;9.70;;;;;;;3.97;67.11;103645.45;1731804;82;21066;-86
2022/02/28 10:51:27;;;;;;;16.50;8.20;;;;;;;3.97;67.18;103639.84;1732008;82;21141;-86
2022/02/28 10:54:13;;;;;;;19.15;8.78;;;;;;;4.00;67.15;103645.76;1731742;82;21623;-87
2022/02/28 10:56:58;;;;;;;16.93;8.18;;;;;;;4.02;66.85;103644.22;1731539;82;21784;-86
2022/02/28 10:59:41;;;;;;;12.78;7.15;;;;;;;4.07;66.75;103641.66;1731356;82;21066;-87
2022/02/28 11:02:08;;;;;;;15.40;6.35;;;;;;;4.09;66.37;103644.97;1731787;82;21106;-86
2022/02/28 11:04:40;;;;;;;12.60;6.30;;;;;;;4.11;66.36;103642.88;1731708;82;21082;-87
2022/02/28 11:07:12;;;;;;;10.90;5.45;;;;;;;4.12;66.09;103639.52;1731949;82;21043;-87
2022/02/28 11:09:41;;;;;;;9.53;5.58;;;;;;;4.12;65.59;103639.13;1731983;82;21845;-86
2022/02/28 11:12:29;;;;;;;9.40;4.55;;;;;;;4.11;65.37;103637.66;1731769;82;21659;-86
2022/02/28 11:14:59;;;;;;;10.38;5.53;;;;;;;4.14;65.25;103628.84;1732923;81;21039;-86
2022/02/28 11:17:29;;;;;;;10.78;5.50;;;;;;;4.22;65.10;103630.50;1734398;82;21008;-86